This is the latest recevied weather packets stored in our database for station/object EB5AGF-13. If no packets are shown the sender has not sent any weather packets the latest 10 day(s).
| Time | Temp. | Humidity | Pressure | Rain* | Wind** | Luminosity | Snow |
|---|---|---|---|---|---|---|---|
| 1777451132 | 20° C | 77% | 1008.4 hPa | 0 mm | 0 m/s | 179 W/m² | - |
| 1777450832 | 20° C | 78% | 1008.4 hPa | 0 mm | 0 m/s | 244 W/m² | - |
| 1777450532 | 20° C | 79% | 1008.5 hPa | 0 mm | 0 m/s | 240 W/m² | - |
| 1777450233 | 19.44° C | 81% | 1008.6 hPa | 0 mm | 0 m/s | 187 W/m² | - |
| 1777449932 | 18.89° C | 81% | 1008.4 hPa | 0 mm | 0 m/s | 147 W/m² | - |
| 1777449632 | 18.89° C | 82% | 1008.3 hPa | 0 mm | 0 m/s | 179 W/m² | - |
| 1777449332 | 18.33° C | 83% | 1008.5 hPa | 0 mm | 0.89 m/s, 317° | 148 W/m² | - |
| 1777449032 | 18.33° C | 83% | 1008.5 hPa | 0 mm | 0.45 m/s, 317° | 144 W/m² | - |
| 1777448432 | 18.33° C | 83% | 1008.5 hPa | 0 mm | 0 m/s | 153 W/m² | - |
| 1777448126 | 18.33° C | 84% | 1008.5 hPa | 0 mm | 0 m/s | 143 W/m² | - |
| 1777447823 | 17.78° C | 85% | 1008.4 hPa | 0 mm | 0 m/s | 131 W/m² | - |
| 1777447519 | 17.78° C | 86% | 1008.4 hPa | 0 mm | 0 m/s | 122 W/m² | - |
| 1777447216 | 17.22° C | 86% | 1008.4 hPa | 0 mm | 0 m/s | 105 W/m² | - |
| 1777446911 | 16.67° C | 87% | 1008.3 hPa | 0 mm | 0 m/s | 86 W/m² | - |
| 1777446607 | 16.67° C | 87% | 1008.3 hPa | 0 mm | 0 m/s | 77 W/m² | - |
| 1777446303 | 16.67° C | 87% | 1008.3 hPa | 0 mm | 0 m/s | 75 W/m² | - |
| 1777446000 | 16.67° C | 87% | 1008.1 hPa | 0 mm | 0 m/s | 74 W/m² | - |
| 1777445695 | 16.67° C | 87% | 1008.2 hPa | 0 mm | 0.45 m/s, 282° | 73 W/m² | - |
| 1777445391 | 16.67° C | 87% | 1008.1 hPa | 0 mm | 0 m/s | 58 W/m² | - |
| 1777445087 | 16.67° C | 88% | 1008.1 hPa | 0 mm | 0 m/s | 50 W/m² | - |
| 1777444783 | 16.11° C | 88% | 1008 hPa | 0 mm | 0.45 m/s, 315° | 42 W/m² | - |
| 1777444479 | 16.11° C | 88% | 1008.1 hPa | 0 mm | 0.45 m/s, 306° | 36 W/m² | - |
| 1777444173 | 16.11° C | 88% | 1008.1 hPa | 0 mm | 0 m/s | 35 W/m² | - |
| 1777443870 | 16.11° C | 89% | 1007.8 hPa | 0 mm | 0.45 m/s, 319° | 35 W/m² | - |
| 1777443568 | 15.56° C | 89% | 1007.8 hPa | 0 mm | 0 m/s | 37 W/m² | - |
* Rain latest hour (hover to see other rain measurements)
** Current wind speed in m/s (hover to see current wind gust speed)